sensor_id;sensor_type;location;lat;lon;timestamp;temperature;humidity
28075;DHT22;15385;51.088;6.572;2022-09-01T00:00:14;22.10;99.90
28075;DHT22;15385;51.088;6.572;2022-09-01T00:02:48;22.10;99.90
28075;DHT22;15385;51.088;6.572;2022-09-01T00:05:20;22.10;99.90
28075;DHT22;15385;51.088;6.572;2022-09-01T00:07:51;22.10;99.90
28075;DHT22;15385;51.088;6.572;2022-09-01T00:10:21;22.00;99.90
28075;DHT22;15385;51.088;6.572;2022-09-01T00:12:52;22.00;99.90
28075;DHT22;15385;51.088;6.572;2022-09-01T00:15:23;21.90;99.90
28075;DHT22;15385;51.088;6.572;2022-09-01T00:17:53;21.90;99.90
28075;DHT22;15385;51.088;6.572;2022-09-01T00:20:24;21.90;99.90
28075;DHT22;15385;51.088;6.572;2022-09-01T00:22:54;21.90;99.90
28075;DHT22;15385;51.088;6.572;2022-09-01T00:25:25;22.00;99.90
28075;DHT22;15385;51.088;6.572;2022-09-01T00:27:57;22.00;99.90
28075;DHT22;15385;51.088;6.572;2022-09-01T00:30:29;22.00;99.90
28075;DHT22;15385;51.088;6.572;2022-09-01T00:33:00;22.00;99.90
28075;DHT22;15385;51.088;6.572;2022-09-01T00:35:31;22.10;99.90
28075;DHT22;15385;51.088;6.572;2022-09-01T00:38:02;22.10;99.90
28075;DHT22;15385;51.088;6.572;2022-09-01T00:40:32;22.10;99.90
28075;DHT22;15385;51.088;6.572;2022-09-01T00:43:14;22.10;99.90
28075;DHT22;15385;51.088;6.572;2022-09-01T00:45:46;22.10;99.90
28075;DHT22;15385;51.088;6.572;2022-09-01T00:48:17;22.10;99.90
28075;DHT22;15385;51.088;6.572;2022-09-01T00:50:49;22.10;99.90
28075;DHT22;15385;51.088;6.572;2022-09-01T00:53:23;22.00;99.90
28075;DHT22;15385;51.088;6.572;2022-09-01T00:55:53;21.90;99.90
28075;DHT22;15385;51.088;6.572;2022-09-01T00:58:24;21.90;99.90
28075;DHT22;15385;51.088;6.572;2022-09-01T01:00:55;21.90;99.90
28075;DHT22;15385;51.088;6.572;2022-09-01T01:03:25;21.90;99.90
28075;DHT22;15385;51.088;6.572;2022-09-01T01:05:57;21.90;99.90
28075;DHT22;15385;51.088;6.572;2022-09-01T01:08:31;21.90;99.90
28075;DHT22;15385;51.088;6.572;2022-09-01T01:11:06;21.90;99.90
28075;DHT22;15385;51.088;6.572;2022-09-01T01:14:19;21.80;99.90
28075;DHT22;15385;51.088;6.572;2022-09-01T01:16:35;21.80;99.90
28075;DHT22;15385;51.088;6.572;2022-09-01T01:19:05;21.70;99.90
28075;DHT22;15385;51.088;6.572;2022-09-01T01:21:57;21.70;99.90
28075;DHT22;15385;51.088;6.572;2022-09-01T01:24:46;21.70;99.90
28075;DHT22;15385;51.088;6.572;2022-09-01T01:27:17;21.60;99.90
28075;DHT22;15385;51.088;6.572;2022-09-01T01:29:51;21.60;99.90
28075;DHT22;15385;51.088;6.572;2022-09-01T01:32:24;21.60;99.90
28075;DHT22;15385;51.088;6.572;2022-09-01T01:34:55;21.50;99.90
28075;DHT22;15385;51.088;6.572;2022-09-01T01:37:25;21.50;99.90
28075;DHT22;15385;51.088;6.572;2022-09-01T01:39:56;21.40;99.90
28075;DHT22;15385;51.088;6.572;2022-09-01T01:42:27;21.40;99.90
28075;DHT22;15385;51.088;6.572;2022-09-01T01:44:58;21.40;99.90
28075;DHT22;15385;51.088;6.572;2022-09-01T01:47:29;21.40;99.90
28075;DHT22;15385;51.088;6.572;2022-09-01T01:49:59;21.40;99.90
28075;DHT22;15385;51.088;6.572;2022-09-01T01:52:30;21.40;99.90
28075;DHT22;15385;51.088;6.572;2022-09-01T01:55:04;21.20;99.90
28075;DHT22;15385;51.088;6.572;2022-09-01T01:57:40;21.20;99.90
28075;DHT22;15385;51.088;6.572;2022-09-01T02:00:19;21.10;99.90
28075;DHT22;15385;51.088;6.572;2022-09-01T02:02:50;21.10;99.90
28075;DHT22;15385;51.088;6.572;2022-09-01T02:05:25;21.10;99.90
28075;DHT22;15385;51.088;6.572;2022-09-01T02:07:56;21.00;99.90
28075;DHT22;15385;51.088;6.572;2022-09-01T02:10:34;21.00;99.90
28075;DHT22;15385;51.088;6.572;2022-09-01T02:13:05;21.00;99.90
28075;DHT22;15385;51.088;6.572;2022-09-01T02:15:37;21.00;99.90
28075;DHT22;15385;51.088;6.572;2022-09-01T02:18:14;21.00;99.90
28075;DHT22;15385;51.088;6.572;2022-09-01T02:20:46;21.00;99.90
28075;DHT22;15385;51.088;6.572;2022-09-01T02:23:17;21.00;99.90
28075;DHT22;15385;51.088;6.572;2022-09-01T02:25:53;21.00;99.90
28075;DHT22;15385;51.088;6.572;2022-09-01T02:28:24;20.90;99.90
28075;DHT22;15385;51.088;6.572;2022-09-01T02:30:57;20.90;99.90
28075;DHT22;15385;51.088;6.572;2022-09-01T02:33:29;20.80;99.90
28075;DHT22;15385;51.088;6.572;2022-09-01T02:36:02;20.70;99.90
28075;DHT22;15385;51.088;6.572;2022-09-01T02:38:33;20.60;99.90
28075;DHT22;15385;51.088;6.572;2022-09-01T02:41:04;20.60;99.90
28075;DHT22;15385;51.088;6.572;2022-09-01T02:43:34;20.60;99.90
28075;DHT22;15385;51.088;6.572;2022-09-01T02:46:05;20.50;99.90
28075;DHT22;15385;51.088;6.572;2022-09-01T02:48:36;20.50;99.90
28075;DHT22;15385;51.088;6.572;2022-09-01T02:51:09;20.50;99.90
28075;DHT22;15385;51.088;6.572;2022-09-01T02:53:41;20.50;99.90
28075;DHT22;15385;51.088;6.572;2022-09-01T02:56:12;20.50;99.90
28075;DHT22;15385;51.088;6.572;2022-09-01T02:58:43;20.40;99.90
28075;DHT22;15385;51.088;6.572;2022-09-01T03:01:19;20.30;99.90
28075;DHT22;15385;51.088;6.572;2022-09-01T03:03:53;20.30;99.90
28075;DHT22;15385;51.088;6.572;2022-09-01T03:06:24;20.20;99.90
28075;DHT22;15385;51.088;6.572;2022-09-01T03:08:55;20.30;99.90
28075;DHT22;15385;51.088;6.572;2022-09-01T03:11:29;20.30;99.90
28075;DHT22;15385;51.088;6.572;2022-09-01T03:13:59;20.20;99.90
28075;DHT22;15385;51.088;6.572;2022-09-01T03:16:30;20.20;99.90
28075;DHT22;15385;51.088;6.572;2022-09-01T03:19:01;20.20;99.90
28075;DHT22;15385;51.088;6.572;2022-09-01T03:21:39;20.20;99.90
28075;DHT22;15385;51.088;6.572;2022-09-01T03:24:11;20.20;99.90
28075;DHT22;15385;51.088;6.572;2022-09-01T03:26:45;20.20;99.90
28075;DHT22;15385;51.088;6.572;2022-09-01T03:29:16;20.10;99.90
28075;DHT22;15385;51.088;6.572;2022-09-01T03:31:47;20.00;99.90
28075;DHT22;15385;51.088;6.572;2022-09-01T03:34:18;20.00;99.90
28075;DHT22;15385;51.088;6.572;2022-09-01T03:36:52;19.90;99.90
28075;DHT22;15385;51.088;6.572;2022-09-01T03:39:23;19.90;99.90
28075;DHT22;15385;51.088;6.572;2022-09-01T03:41:54;20.00;99.90
28075;DHT22;15385;51.088;6.572;2022-09-01T03:44:25;19.90;99.90
28075;DHT22;15385;51.088;6.572;2022-09-01T03:46:56;20.00;99.90
28075;DHT22;15385;51.088;6.572;2022-09-01T03:49:27;19.90;99.90
28075;DHT22;15385;51.088;6.572;2022-09-01T03:51:58;19.90;99.90
28075;DHT22;15385;51.088;6.572;2022-09-01T03:54:29;19.90;99.90
28075;DHT22;15385;51.088;6.572;2022-09-01T03:57:02;19.90;99.90
28075;DHT22;15385;51.088;6.572;2022-09-01T03:59:35;19.80;99.90
28075;DHT22;15385;51.088;6.572;2022-09-01T04:02:07;19.80;99.90
28075;DHT22;15385;51.088;6.572;2022-09-01T04:04:37;19.80;99.90
28075;DHT22;15385;51.088;6.572;2022-09-01T04:07:08;19.80;99.90
28075;DHT22;15385;51.088;6.572;2022-09-01T04:09:38;19.80;99.90
28075;DHT22;15385;51.088;6.572;2022-09-01T04:12:09;19.80;99.90
28075;DHT22;15385;51.088;6.572;2022-09-01T04:14:39;19.80;99.90
28075;DHT22;15385;51.088;6.572;2022-09-01T04:17:10;19.80;99.90
28075;DHT22;15385;51.088;6.572;2022-09-01T04:20:00;19.70;99.90
28075;DHT22;15385;51.088;6.572;2022-09-01T04:22:37;19.70;99.90
28075;DHT22;15385;51.088;6.572;2022-09-01T04:25:08;19.70;99.90
28075;DHT22;15385;51.088;6.572;2022-09-01T04:27:39;19.70;99.90
28075;DHT22;15385;51.088;6.572;2022-09-01T04:30:10;19.70;99.90
28075;DHT22;15385;51.088;6.572;2022-09-01T04:32:41;19.70;99.90
28075;DHT22;15385;51.088;6.572;2022-09-01T04:35:13;19.70;99.90
28075;DHT22;15385;51.088;6.572;2022-09-01T04:37:46;19.60;99.90
28075;DHT22;15385;51.088;6.572;2022-09-01T04:40:17;19.60;99.90
28075;DHT22;15385;51.088;6.572;2022-09-01T04:42:48;19.60;99.90
28075;DHT22;15385;51.088;6.572;2022-09-01T04:45:18;19.50;99.90
28075;DHT22;15385;51.088;6.572;2022-09-01T04:47:51;19.50;99.90
28075;DHT22;15385;51.088;6.572;2022-09-01T04:50:22;19.50;99.90
28075;DHT22;15385;51.088;6.572;2022-09-01T04:52:58;19.50;99.90
28075;DHT22;15385;51.088;6.572;2022-09-01T04:55:30;19.50;99.90
28075;DHT22;15385;51.088;6.572;2022-09-01T04:58:00;19.40;99.90
28075;DHT22;15385;51.088;6.572;2022-09-01T05:00:32;19.40;99.90
28075;DHT22;15385;51.088;6.572;2022-09-01T05:03:02;19.40;99.90
28075;DHT22;15385;51.088;6.572;2022-09-01T05:05:43;19.40;99.90
28075;DHT22;15385;51.088;6.572;2022-09-01T05:08:15;19.40;99.90
28075;DHT22;15385;51.088;6.572;2022-09-01T05:10:46;19.40;99.90
28075;DHT22;15385;51.088;6.572;2022-09-01T05:13:19;19.40;99.90
28075;DHT22;15385;51.088;6.572;2022-09-01T05:16:00;19.40;99.90
28075;DHT22;15385;51.088;6.572;2022-09-01T05:18:31;19.30;99.90
28075;DHT22;15385;51.088;6.572;2022-09-01T05:21:06;19.40;99.90
28075;DHT22;15385;51.088;6.572;2022-09-01T05:23:39;19.40;99.90
28075;DHT22;15385;51.088;6.572;2022-09-01T05:26:14;19.40;99.90
28075;DHT22;15385;51.088;6.572;2022-09-01T05:28:46;19.40;99.90
28075;DHT22;15385;51.088;6.572;2022-09-01T05:31:17;19.40;99.90
28075;DHT22;15385;51.088;6.572;2022-09-01T05:33:49;19.40;99.90
28075;DHT22;15385;51.088;6.572;2022-09-01T05:36:21;19.50;99.90
28075;DHT22;15385;51.088;6.572;2022-09-01T05:38:52;19.60;99.90
28075;DHT22;15385;51.088;6.572;2022-09-01T05:41:22;19.60;99.90
28075;DHT22;15385;51.088;6.572;2022-09-01T05:43:53;19.60;99.90
28075;DHT22;15385;51.088;6.572;2022-09-01T05:46:24;19.70;99.90
28075;DHT22;15385;51.088;6.572;2022-09-01T05:48:55;19.70;99.90
28075;DHT22;15385;51.088;6.572;2022-09-01T05:51:27;19.70;99.90
28075;DHT22;15385;51.088;6.572;2022-09-01T05:53:59;19.70;99.90
28075;DHT22;15385;51.088;6.572;2022-09-01T05:56:31;19.70;99.90
28075;DHT22;15385;51.088;6.572;2022-09-01T05:59:01;19.80;99.90
28075;DHT22;15385;51.088;6.572;2022-09-01T06:01:32;19.80;99.90
28075;DHT22;15385;51.088;6.572;2022-09-01T06:04:03;19.90;99.90
28075;DHT22;15385;51.088;6.572;2022-09-01T06:06:41;20.00;99.90
28075;DHT22;15385;51.088;6.572;2022-09-01T06:09:15;20.00;99.90
28075;DHT22;15385;51.088;6.572;2022-09-01T06:11:47;20.10;99.90
28075;DHT22;15385;51.088;6.572;2022-09-01T06:14:17;20.10;99.90
28075;DHT22;15385;51.088;6.572;2022-09-01T06:16:49;20.20;99.90
28075;DHT22;15385;51.088;6.572;2022-09-01T06:19:23;20.20;99.90
28075;DHT22;15385;51.088;6.572;2022-09-01T06:21:53;20.30;99.90
28075;DHT22;15385;51.088;6.572;2022-09-01T06:24:26;20.40;99.90
28075;DHT22;15385;51.088;6.572;2022-09-01T06:26:58;20.60;99.90
28075;DHT22;15385;51.088;6.572;2022-09-01T06:29:28;20.60;99.90
28075;DHT22;15385;51.088;6.572;2022-09-01T06:32:00;20.70;99.90
28075;DHT22;15385;51.088;6.572;2022-09-01T06:34:32;20.80;99.90
28075;DHT22;15385;51.088;6.572;2022-09-01T06:37:05;20.90;99.90
28075;DHT22;15385;51.088;6.572;2022-09-01T06:39:36;21.10;99.90
28075;DHT22;15385;51.088;6.572;2022-09-01T06:42:07;21.20;99.90
28075;DHT22;15385;51.088;6.572;2022-09-01T06:44:38;21.30;99.90
28075;DHT22;15385;51.088;6.572;2022-09-01T06:47:10;21.30;99.90
28075;DHT22;15385;51.088;6.572;2022-09-01T06:49:40;21.50;99.90
28075;DHT22;15385;51.088;6.572;2022-09-01T06:52:11;21.60;99.90
28075;DHT22;15385;51.088;6.572;2022-09-01T06:54:43;21.60;99.90
28075;DHT22;15385;51.088;6.572;2022-09-01T06:57:13;21.60;99.90
28075;DHT22;15385;51.088;6.572;2022-09-01T06:59:43;21.60;99.90
28075;DHT22;15385;51.088;6.572;2022-09-01T07:02:15;21.60;99.90
28075;DHT22;15385;51.088;6.572;2022-09-01T07:04:45;21.70;99.90
28075;DHT22;15385;51.088;6.572;2022-09-01T07:07:16;21.80;99.90
28075;DHT22;15385;51.088;6.572;2022-09-01T07:09:46;21.80;99.90
28075;DHT22;15385;51.088;6.572;2022-09-01T07:12:17;22.00;99.90
28075;DHT22;15385;51.088;6.572;2022-09-01T07:14:49;22.00;99.90
28075;DHT22;15385;51.088;6.572;2022-09-01T07:17:21;22.00;99.90
28075;DHT22;15385;51.088;6.572;2022-09-01T07:19:53;22.10;99.90
28075;DHT22;15385;51.088;6.572;2022-09-01T07:22:25;22.20;99.90
28075;DHT22;15385;51.088;6.572;2022-09-01T07:24:55;22.30;99.90
28075;DHT22;15385;51.088;6.572;2022-09-01T07:27:27;22.50;99.90
28075;DHT22;15385;51.088;6.572;2022-09-01T07:29:58;22.60;99.90
28075;DHT22;15385;51.088;6.572;2022-09-01T07:32:28;22.60;99.90
28075;DHT22;15385;51.088;6.572;2022-09-01T07:34:59;22.60;99.90
28075;DHT22;15385;51.088;6.572;2022-09-01T07:37:30;22.80;99.90
28075;DHT22;15385;51.088;6.572;2022-09-01T07:40:01;22.90;99.90
28075;DHT22;15385;51.088;6.572;2022-09-01T07:42:31;22.90;99.90
28075;DHT22;15385;51.088;6.572;2022-09-01T07:45:02;23.10;99.90
28075;DHT22;15385;51.088;6.572;2022-09-01T07:47:38;23.00;99.90
28075;DHT22;15385;51.088;6.572;2022-09-01T07:50:09;23.10;99.90
28075;DHT22;15385;51.088;6.572;2022-09-01T07:52:41;23.30;99.90
28075;DHT22;15385;51.088;6.572;2022-09-01T07:55:13;23.50;99.90
28075;DHT22;15385;51.088;6.572;2022-09-01T07:57:44;23.60;99.90
28075;DHT22;15385;51.088;6.572;2022-09-01T08:00:15;23.80;99.90
28075;DHT22;15385;51.088;6.572;2022-09-01T08:02:46;24.00;99.90
28075;DHT22;15385;51.088;6.572;2022-09-01T08:05:17;24.00;99.90
28075;DHT22;15385;51.088;6.572;2022-09-01T08:07:52;24.00;99.90
28075;DHT22;15385;51.088;6.572;2022-09-01T08:10:23;24.00;99.90
28075;DHT22;15385;51.088;6.572;2022-09-01T08:12:53;24.20;99.90
28075;DHT22;15385;51.088;6.572;2022-09-01T08:15:24;24.50;99.90
28075;DHT22;15385;51.088;6.572;2022-09-01T08:17:54;24.50;99.90
28075;DHT22;15385;51.088;6.572;2022-09-01T08:20:25;24.60;99.90
28075;DHT22;15385;51.088;6.572;2022-09-01T08:22:56;24.70;99.90
28075;DHT22;15385;51.088;6.572;2022-09-01T08:25:27;24.80;99.90
28075;DHT22;15385;51.088;6.572;2022-09-01T08:27:57;25.00;99.90
28075;DHT22;15385;51.088;6.572;2022-09-01T08:30:29;25.20;99.90
28075;DHT22;15385;51.088;6.572;2022-09-01T08:33:01;25.20;99.90
28075;DHT22;15385;51.088;6.572;2022-09-01T08:35:32;25.40;99.90
28075;DHT22;15385;51.088;6.572;2022-09-01T08:38:02;25.60;99.90
28075;DHT22;15385;51.088;6.572;2022-09-01T08:40:33;25.60;99.40
28075;DHT22;15385;51.088;6.572;2022-09-01T08:45:48;25.60;99.90
28075;DHT22;15385;51.088;6.572;2022-09-01T08:51:14;25.80;98.90
28075;DHT22;15385;51.088;6.572;2022-09-01T08:56:38;26.00;98.30
28075;DHT22;15385;51.088;6.572;2022-09-01T08:59:09;26.20;98.40
28075;DHT22;15385;51.088;6.572;2022-09-01T09:01:42;26.30;98.10
28075;DHT22;15385;51.088;6.572;2022-09-01T09:04:35;26.30;97.60
28075;DHT22;15385;51.088;6.572;2022-09-01T09:10:25;26.90;96.10
28075;DHT22;15385;51.088;6.572;2022-09-01T09:20:53;26.90;93.10
28075;DHT22;15385;51.088;6.572;2022-09-01T09:23:29;26.90;92.00
28075;DHT22;15385;51.088;6.572;2022-09-01T09:26:02;26.90;91.10
28075;DHT22;15385;51.088;6.572;2022-09-01T09:28:32;26.80;91.00
28075;DHT22;15385;51.088;6.572;2022-09-01T09:33:53;27.00;91.30
28075;DHT22;15385;51.088;6.572;2022-09-01T09:36:32;27.30;91.10
28075;DHT22;15385;51.088;6.572;2022-09-01T09:41:37;27.60;90.80
28075;DHT22;15385;51.088;6.572;2022-09-01T09:46:53;28.10;90.10
28075;DHT22;15385;51.088;6.572;2022-09-01T09:51:56;28.50;88.40
28075;DHT22;15385;51.088;6.572;2022-09-01T09:54:29;28.70;84.30
28075;DHT22;15385;51.088;6.572;2022-09-01T10:02:33;28.10;78.70
28075;DHT22;15385;51.088;6.572;2022-09-01T10:07:54;28.30;77.40
28075;DHT22;15385;51.088;6.572;2022-09-01T10:10:30;28.50;75.20
28075;DHT22;15385;51.088;6.572;2022-09-01T10:13:00;28.50;74.60
28075;DHT22;15385;51.088;6.572;2022-09-01T10:15:32;28.70;73.50
28075;DHT22;15385;51.088;6.572;2022-09-01T10:18:08;28.80;72.60
28075;DHT22;15385;51.088;6.572;2022-09-01T10:21:25;28.90;73.40
28075;DHT22;15385;51.088;6.572;2022-09-01T10:23:37;29.10;73.30
28075;DHT22;15385;51.088;6.572;2022-09-01T10:26:13;29.30;71.50
28075;DHT22;15385;51.088;6.572;2022-09-01T10:28:59;29.40;72.30
28075;DHT22;15385;51.088;6.572;2022-09-01T10:31:30;29.40;72.80
28075;DHT22;15385;51.088;6.572;2022-09-01T10:34:02;29.70;71.30
28075;DHT22;15385;51.088;6.572;2022-09-01T10:36:33;29.80;71.60
28075;DHT22;15385;51.088;6.572;2022-09-01T10:39:06;29.70;69.10
28075;DHT22;15385;51.088;6.572;2022-09-01T10:44:21;29.40;67.00
28075;DHT22;15385;51.088;6.572;2022-09-01T10:46:52;28.90;67.30
28075;DHT22;15385;51.088;6.572;2022-09-01T10:51:56;28.90;68.70
28075;DHT22;15385;51.088;6.572;2022-09-01T10:57:18;29.60;68.40
28075;DHT22;15385;51.088;6.572;2022-09-01T10:59:51;29.90;67.20
28075;DHT22;15385;51.088;6.572;2022-09-01T11:02:23;30.00;65.10
28075;DHT22;15385;51.088;6.572;2022-09-01T11:15:05;30.40;66.00
28075;DHT22;15385;51.088;6.572;2022-09-01T11:17:55;30.50;64.30
28075;DHT22;15385;51.088;6.572;2022-09-01T11:36:00;30.20;64.40
28075;DHT22;15385;51.088;6.572;2022-09-01T11:38:55;30.60;64.40
28075;DHT22;15385;51.088;6.572;2022-09-01T11:41:25;30.80;64.20
28075;DHT22;15385;51.088;6.572;2022-09-01T11:43:58;31.40;64.70
28075;DHT22;15385;51.088;6.572;2022-09-01T11:46:31;31.50;62.90
28075;DHT22;15385;51.088;6.572;2022-09-01T11:49:04;31.40;63.00
28075;DHT22;15385;51.088;6.572;2022-09-01T11:51:40;31.60;62.10
28075;DHT22;15385;51.088;6.572;2022-09-01T11:54:13;31.60;60.80
28075;DHT22;15385;51.088;6.572;2022-09-01T11:56:44;31.50;61.90
28075;DHT22;15385;51.088;6.572;2022-09-01T11:59:28;31.40;60.40
28075;DHT22;15385;51.088;6.572;2022-09-01T12:01:59;31.50;61.60
28075;DHT22;15385;51.088;6.572;2022-09-01T12:04:33;31.80;61.20
28075;DHT22;15385;51.088;6.572;2022-09-01T12:07:07;32.10;59.80
28075;DHT22;15385;51.088;6.572;2022-09-01T12:09:41;32.30;59.90
28075;DHT22;15385;51.088;6.572;2022-09-01T12:12:29;32.30;58.50
28075;DHT22;15385;51.088;6.572;2022-09-01T12:15:42;31.80;59.60
28075;DHT22;15385;51.088;6.572;2022-09-01T12:18:06;31.80;59.20
28075;DHT22;15385;51.088;6.572;2022-09-01T12:20:37;32.00;60.00
28075;DHT22;15385;51.088;6.572;2022-09-01T12:23:24;32.30;59.20
28075;DHT22;15385;51.088;6.572;2022-09-01T12:25:57;32.00;59.20
28075;DHT22;15385;51.088;6.572;2022-09-01T12:28:28;32.10;60.10
28075;DHT22;15385;51.088;6.572;2022-09-01T12:31:04;32.30;59.90
28075;DHT22;15385;51.088;6.572;2022-09-01T12:33:35;32.40;59.40
28075;DHT22;15385;51.088;6.572;2022-09-01T12:36:12;32.10;59.40
28075;DHT22;15385;51.088;6.572;2022-09-01T12:38:43;31.50;59.80
28075;DHT22;15385;51.088;6.572;2022-09-01T12:41:23;31.20;60.70
28075;DHT22;15385;51.088;6.572;2022-09-01T12:43:54;31.00;61.20
28075;DHT22;15385;51.088;6.572;2022-09-01T12:46:41;31.20;61.40
28075;DHT22;15385;51.088;6.572;2022-09-01T12:49:16;31.40;61.00
28075;DHT22;15385;51.088;6.572;2022-09-01T12:51:47;31.40;60.20
28075;DHT22;15385;51.088;6.572;2022-09-01T12:54:23;31.60;61.60
28075;DHT22;15385;51.088;6.572;2022-09-01T12:56:54;31.80;61.10
28075;DHT22;15385;51.088;6.572;2022-09-01T12:59:25;31.80;59.90
28075;DHT22;15385;51.088;6.572;2022-09-01T13:01:56;31.90;59.50
28075;DHT22;15385;51.088;6.572;2022-09-01T13:04:28;31.70;59.70
28075;DHT22;15385;51.088;6.572;2022-09-01T13:07:01;31.60;59.60
28075;DHT22;15385;51.088;6.572;2022-09-01T13:09:32;31.60;59.60
28075;DHT22;15385;51.088;6.572;2022-09-01T13:12:16;31.20;59.70
28075;DHT22;15385;51.088;6.572;2022-09-01T13:14:47;30.40;60.90
28075;DHT22;15385;51.088;6.572;2022-09-01T13:17:17;30.40;61.80
28075;DHT22;15385;51.088;6.572;2022-09-01T13:19:48;30.60;61.20
28075;DHT22;15385;51.088;6.572;2022-09-01T13:22:19;30.80;61.10
28075;DHT22;15385;51.088;6.572;2022-09-01T13:24:49;31.20;61.90
28075;DHT22;15385;51.088;6.572;2022-09-01T13:27:20;31.60;61.90
28075;DHT22;15385;51.088;6.572;2022-09-01T13:29:51;31.80;60.00
28075;DHT22;15385;51.088;6.572;2022-09-01T13:32:22;31.50;60.30
28075;DHT22;15385;51.088;6.572;2022-09-01T13:34:52;31.40;60.90
28075;DHT22;15385;51.088;6.572;2022-09-01T13:37:23;31.10;60.70
28075;DHT22;15385;51.088;6.572;2022-09-01T13:39:54;30.50;61.10
28075;DHT22;15385;51.088;6.572;2022-09-01T13:42:25;30.20;61.80
28075;DHT22;15385;51.088;6.572;2022-09-01T13:44:55;30.10;62.50
28075;DHT22;15385;51.088;6.572;2022-09-01T13:47:26;30.00;62.40
28075;DHT22;15385;51.088;6.572;2022-09-01T13:49:57;29.80;62.90
28075;DHT22;15385;51.088;6.572;2022-09-01T13:52:27;30.00;63.30
28075;DHT22;15385;51.088;6.572;2022-09-01T13:54:59;30.60;63.10
28075;DHT22;15385;51.088;6.572;2022-09-01T13:57:30;31.20;62.50
28075;DHT22;15385;51.088;6.572;2022-09-01T14:00:07;31.30;61.10
28075;DHT22;15385;51.088;6.572;2022-09-01T14:02:41;31.00;61.00
28075;DHT22;15385;51.088;6.572;2022-09-01T14:05:12;30.40;60.80
28075;DHT22;15385;51.088;6.572;2022-09-01T14:07:42;30.10;60.80
28075;DHT22;15385;51.088;6.572;2022-09-01T14:10:13;29.80;61.80
28075;DHT22;15385;51.088;6.572;2022-09-01T14:12:44;29.80;62.50
28075;DHT22;15385;51.088;6.572;2022-09-01T14:15:18;29.70;62.10
28075;DHT22;15385;51.088;6.572;2022-09-01T14:17:50;30.10;62.60
28075;DHT22;15385;51.088;6.572;2022-09-01T14:20:26;30.60;62.10
28075;DHT22;15385;51.088;6.572;2022-09-01T14:22:57;30.60;61.70
28075;DHT22;15385;51.088;6.572;2022-09-01T14:25:27;30.70;62.20
28075;DHT22;15385;51.088;6.572;2022-09-01T14:27:59;30.80;61.00
28075;DHT22;15385;51.088;6.572;2022-09-01T14:30:31;30.60;61.70
28075;DHT22;15385;51.088;6.572;2022-09-01T14:33:02;30.50;62.40
28075;DHT22;15385;51.088;6.572;2022-09-01T14:35:33;30.60;61.90
28075;DHT22;15385;51.088;6.572;2022-09-01T14:38:03;30.70;62.40
28075;DHT22;15385;51.088;6.572;2022-09-01T14:40:37;31.10;62.40
28075;DHT22;15385;51.088;6.572;2022-09-01T14:43:09;31.30;61.00
28075;DHT22;15385;51.088;6.572;2022-09-01T14:45:41;31.40;61.30
28075;DHT22;15385;51.088;6.572;2022-09-01T14:48:16;31.40;61.40
28075;DHT22;15385;51.088;6.572;2022-09-01T14:50:48;31.10;60.30
28075;DHT22;15385;51.088;6.572;2022-09-01T14:53:19;30.80;60.70
28075;DHT22;15385;51.088;6.572;2022-09-01T14:55:51;30.60;61.00
28075;DHT22;15385;51.088;6.572;2022-09-01T14:58:21;30.40;61.10
28075;DHT22;15385;51.088;6.572;2022-09-01T15:00:53;30.40;61.10
28075;DHT22;15385;51.088;6.572;2022-09-01T15:03:25;30.40;61.40
28075;DHT22;15385;51.088;6.572;2022-09-01T15:05:55;30.80;61.70
28075;DHT22;15385;51.088;6.572;2022-09-01T15:08:26;31.00;61.60
28075;DHT22;15385;51.088;6.572;2022-09-01T15:10:56;31.00;61.60
28075;DHT22;15385;51.088;6.572;2022-09-01T15:13:27;31.00;62.10
28075;DHT22;15385;51.088;6.572;2022-09-01T15:15:58;31.00;61.90
28075;DHT22;15385;51.088;6.572;2022-09-01T15:18:28;30.90;61.90
28075;DHT22;15385;51.088;6.572;2022-09-01T15:20:59;30.70;62.30
28075;DHT22;15385;51.088;6.572;2022-09-01T15:23:29;30.40;62.70
28075;DHT22;15385;51.088;6.572;2022-09-01T15:26:00;30.30;63.00
28075;DHT22;15385;51.088;6.572;2022-09-01T15:28:30;30.10;62.80
28075;DHT22;15385;51.088;6.572;2022-09-01T15:31:01;29.80;64.00
28075;DHT22;15385;51.088;6.572;2022-09-01T15:33:32;29.50;64.10
28075;DHT22;15385;51.088;6.572;2022-09-01T15:36:03;29.40;64.40
28075;DHT22;15385;51.088;6.572;2022-09-01T15:38:34;29.20;64.50
28075;DHT22;15385;51.088;6.572;2022-09-01T15:41:04;29.40;64.80
28075;DHT22;15385;51.088;6.572;2022-09-01T15:43:35;29.70;64.90
28075;DHT22;15385;51.088;6.572;2022-09-01T15:46:06;29.70;63.70
28075;DHT22;15385;51.088;6.572;2022-09-01T15:48:36;29.70;64.00
28075;DHT22;15385;51.088;6.572;2022-09-01T15:51:27;29.70;64.50
28075;DHT22;15385;51.088;6.572;2022-09-01T15:54:01;29.70;66.60
28075;DHT22;15385;51.088;6.572;2022-09-01T15:56:32;29.20;64.80
28075;DHT22;15385;51.088;6.572;2022-09-01T15:59:04;28.80;65.70
28075;DHT22;15385;51.088;6.572;2022-09-01T16:01:35;28.50;66.30
28075;DHT22;15385;51.088;6.572;2022-09-01T16:04:07;28.40;66.80
28075;DHT22;15385;51.088;6.572;2022-09-01T16:06:38;28.20;66.80
28075;DHT22;15385;51.088;6.572;2022-09-01T16:09:09;28.20;67.40
28075;DHT22;15385;51.088;6.572;2022-09-01T16:11:40;28.10;67.20
28075;DHT22;15385;51.088;6.572;2022-09-01T16:14:10;28.10;67.70
28075;DHT22;15385;51.088;6.572;2022-09-01T16:24:48;28.60;67.40
28075;DHT22;15385;51.088;6.572;2022-09-01T16:27:20;28.80;67.20
28075;DHT22;15385;51.088;6.572;2022-09-01T16:29:53;28.90;67.00
28075;DHT22;15385;51.088;6.572;2022-09-01T16:32:24;29.00;67.40
28075;DHT22;15385;51.088;6.572;2022-09-01T16:34:56;29.10;67.00
28075;DHT22;15385;51.088;6.572;2022-09-01T16:40:02;29.20;66.90
28075;DHT22;15385;51.088;6.572;2022-09-01T16:45:14;28.90;65.50
28075;DHT22;15385;51.088;6.572;2022-09-01T16:50:33;28.80;65.90
28075;DHT22;15385;51.088;6.572;2022-09-01T16:53:08;28.80;66.20
28075;DHT22;15385;51.088;6.572;2022-09-01T17:01:09;28.50;66.70
28075;DHT22;15385;51.088;6.572;2022-09-01T17:08:50;28.60;66.40
28075;DHT22;15385;51.088;6.572;2022-09-01T17:12:08;28.60;66.30
28075;DHT22;15385;51.088;6.572;2022-09-01T17:14:30;28.60;65.80
28075;DHT22;15385;51.088;6.572;2022-09-01T17:17:06;28.40;65.60
28075;DHT22;15385;51.088;6.572;2022-09-01T17:19:38;28.20;66.40
28075;DHT22;15385;51.088;6.572;2022-09-01T17:22:10;28.20;66.60
28075;DHT22;15385;51.088;6.572;2022-09-01T17:24:45;28.20;66.60
28075;DHT22;15385;51.088;6.572;2022-09-01T17:27:30;28.10;65.90
28075;DHT22;15385;51.088;6.572;2022-09-01T17:30:03;28.00;66.00
28075;DHT22;15385;51.088;6.572;2022-09-01T17:43:47;27.60;66.60
28075;DHT22;15385;51.088;6.572;2022-09-01T17:46:18;27.60;66.10
28075;DHT22;15385;51.088;6.572;2022-09-01T17:56:46;27.60;65.80
28075;DHT22;15385;51.088;6.572;2022-09-01T18:02:07;27.70;65.90
28075;DHT22;15385;51.088;6.572;2022-09-01T18:04:51;27.60;65.80